createdAt,value
2023-04-29T00:00:25.721Z,101487.66
2023-04-29T00:02:53.313Z,101478.88
2023-04-29T00:05:21.215Z,101486.81
2023-04-29T00:07:48.752Z,101498.13
2023-04-29T00:10:16.245Z,101499.03
2023-04-29T00:12:43.689Z,101496.38
2023-04-29T00:15:11.397Z,101498.94
2023-04-29T00:17:39.481Z,101496.31
2023-04-29T00:20:07.668Z,101501.47
2023-04-29T00:22:38.023Z,101495.38
2023-04-29T00:25:06.162Z,101500.75
2023-04-29T00:27:33.562Z,101504.16
2023-04-29T00:30:00.964Z,101504.19
2023-04-29T00:32:28.405Z,101514.59
2023-04-29T00:34:57.395Z,101511.19
2023-04-29T00:37:24.845Z,101512.06
2023-04-29T00:39:52.388Z,101517.25
2023-04-29T00:42:20.012Z,101521.63
2023-04-29T00:44:47.377Z,101518.13
2023-04-29T00:47:14.809Z,101518.94
2023-04-29T00:49:42.255Z,101514.63
2023-04-29T00:52:11.702Z,101529.44
2023-04-29T00:54:39.922Z,101521.63
2023-04-29T00:57:07.582Z,101519.81
2023-04-29T00:59:35.249Z,101525.06
2023-04-29T01:02:04.173Z,101522.47
2023-04-29T01:04:32.024Z,101522.47
2023-04-29T01:06:59.392Z,101527.72
2023-04-29T01:09:32.843Z,101532.06
2023-04-29T01:12:29.505Z,101544.22
2023-04-29T01:15:08.713Z,101542.44
2023-04-29T01:17:42.667Z,101542.50
2023-04-29T01:20:11.039Z,101544.22
2023-04-29T01:22:39.584Z,101543.38
2023-04-29T01:25:07.861Z,101542.50
2023-04-29T01:27:40.995Z,101545.06
2023-04-29T01:30:08.789Z,101552.91
2023-04-29T01:32:54.013Z,101547.69
2023-04-29T01:35:44.822Z,101548.59
2023-04-29T01:38:24.540Z,101554.66
2023-04-29T01:41:00.701Z,101553.81
2023-04-29T01:43:31.078Z,101559.03
2023-04-29T01:45:59.300Z,101559.00
2023-04-29T01:48:26.925Z,101552.91
2023-04-29T01:50:54.300Z,101553.81
2023-04-29T01:53:21.795Z,101557.22
2023-04-29T01:55:49.218Z,101567.69
2023-04-29T01:58:16.642Z,101567.69
2023-04-29T02:00:44.436Z,101564.25
2023-04-29T02:03:12.180Z,101563.34
2023-04-29T02:05:39.711Z,101569.44
2023-04-29T02:08:07.788Z,101567.72
2023-04-29T02:10:35.321Z,101569.41
2023-04-29T02:13:03.061Z,101568.59
2023-04-29T02:15:30.486Z,101573.81
2023-04-29T02:17:57.868Z,101573.81
2023-04-29T02:20:25.312Z,101578.13
2023-04-29T02:22:52.703Z,101590.31
2023-04-29T02:25:20.128Z,101588.56
2023-04-29T02:27:47.549Z,101595.53
2023-04-29T02:30:14.947Z,101589.44
2023-04-29T02:32:42.427Z,101600.72
2023-04-29T02:35:10.157Z,101603.31
2023-04-29T02:37:37.528Z,101610.31
2023-04-29T02:40:06.081Z,101599.88
2023-04-29T02:42:33.537Z,101605.97
2023-04-29T02:45:01.139Z,101610.28
2023-04-29T02:47:28.560Z,101614.66
2023-04-29T02:49:55.976Z,101611.19
2023-04-29T02:52:23.364Z,101616.41
2023-04-29T02:54:50.770Z,101619.84
2023-04-29T02:57:18.456Z,101612.94
2023-04-29T02:59:45.915Z,101624.22
2023-04-29T03:02:13.438Z,101628.56
2023-04-29T03:04:41.040Z,101627.69
2023-04-29T03:07:08.839Z,101636.38
2023-04-29T03:09:36.253Z,101636.41
2023-04-29T03:12:03.985Z,101639.84
2023-04-29T03:14:31.478Z,101644.19
2023-04-29T03:16:58.993Z,101651.16
2023-04-29T03:19:26.506Z,101644.22
2023-04-29T03:21:54.125Z,101651.16
2023-04-29T03:24:21.669Z,101652.03
2023-04-29T03:26:49.055Z,101645.97
2023-04-29T03:29:16.546Z,101644.22
2023-04-29T03:31:44.191Z,101652.03
2023-04-29T03:34:11.832Z,101655.53
2023-04-29T03:36:39.285Z,101649.44
2023-04-29T03:39:06.787Z,101649.44
2023-04-29T03:41:34.275Z,101652.94
2023-04-29T03:44:01.875Z,101651.22
2023-04-29T03:46:29.493Z,101649.41
2023-04-29T03:48:57.624Z,101661.63
2023-04-29T03:51:25.240Z,101654.66
2023-04-29T03:53:53.788Z,101665.06
2023-04-29T03:56:23.018Z,101668.59
2023-04-29T03:58:50.451Z,101659.00
2023-04-29T04:01:17.899Z,101660.75
2023-04-29T04:03:45.410Z,101665.09
2023-04-29T04:06:12.886Z,101668.59
2023-04-29T04:08:41.218Z,101673.78
2023-04-29T04:11:09.646Z,101668.59
2023-04-29T04:13:37.102Z,101674.63
2023-04-29T04:16:04.725Z,101681.59
2023-04-29T04:18:32.238Z,101682.47
2023-04-29T04:20:59.654Z,101682.47
2023-04-29T04:23:27.114Z,101696.41
2023-04-29T04:25:54.506Z,101688.53
2023-04-29T04:28:21.897Z,101691.19
2023-04-29T04:30:49.408Z,101700.72
2023-04-29T04:33:17.058Z,101700.72
2023-04-29T04:35:44.502Z,101705.09
2023-04-29T04:38:12.583Z,101702.44
2023-04-29T04:40:43.362Z,101712.06
2023-04-29T04:43:10.870Z,101710.28
2023-04-29T04:45:38.299Z,101720.72
2023-04-29T04:48:05.942Z,101732.03
2023-04-29T04:50:33.379Z,101734.63
2023-04-29T04:53:00.968Z,101737.25
2023-04-29T04:55:28.450Z,101742.47
2023-04-29T04:57:55.815Z,101746.78
2023-04-29T05:00:23.241Z,101746.88
2023-04-29T05:02:51.263Z,101740.78
2023-04-29T05:05:18.825Z,101738.16
2023-04-29T05:07:46.286Z,101747.75
2023-04-29T05:10:13.781Z,101735.53
2023-04-29T05:12:41.284Z,101746.88
2023-04-29T05:15:09.084Z,101739.91
2023-04-29T05:17:36.805Z,101748.50
2023-04-29T05:20:04.358Z,101752.06
2023-04-29T05:22:31.782Z,101759.03
2023-04-29T05:25:02.989Z,101760.78
2023-04-29T05:27:30.612Z,101760.78
2023-04-29T05:29:58.182Z,101756.44
2023-04-29T05:32:25.657Z,101771.22
2023-04-29T05:34:53.063Z,101766.03
2023-04-29T05:37:20.553Z,101760.78
2023-04-29T05:39:47.935Z,101772.09
2023-04-29T05:42:15.752Z,101779.94
2023-04-29T05:44:43.144Z,101791.22
2023-04-29T05:47:10.576Z,101781.69
2023-04-29T05:49:38.085Z,101792.09
2023-04-29T05:52:06.641Z,101797.34
2023-04-29T05:54:34.557Z,101788.63
2023-04-29T05:57:03.273Z,101792.09
2023-04-29T05:59:31.836Z,101805.16
2023-04-29T06:01:59.776Z,101807.75
2023-04-29T06:04:27.865Z,101811.22
2023-04-29T06:06:56.799Z,101819.09
2023-04-29T06:09:27.859Z,101826.88
2023-04-29T06:11:56.120Z,101820.78
2023-04-29T06:14:23.657Z,101814.72
2023-04-29T06:16:51.093Z,101826.06
2023-04-29T06:19:19.260Z,101832.16
2023-04-29T06:21:46.618Z,101836.50
2023-04-29T06:24:14.045Z,101832.13
2023-04-29T06:26:41.467Z,101849.56
2023-04-29T06:29:09.656Z,101835.63
2023-04-29T06:31:37.195Z,101854.78
2023-04-29T06:34:04.728Z,101847.81
2023-04-29T06:36:32.429Z,101853.00
2023-04-29T06:38:59.885Z,101857.38
2023-04-29T06:41:27.443Z,101866.09
2023-04-29T06:43:54.856Z,101873.94
2023-04-29T06:46:22.272Z,101866.97
2023-04-29T06:48:49.683Z,101874.78
2023-04-29T06:51:17.329Z,101876.53
2023-04-29T06:53:44.663Z,101868.69
2023-04-29T06:56:12.115Z,101877.34
2023-04-29T06:58:39.915Z,101882.63
2023-04-29T07:01:08.529Z,101882.63
2023-04-29T07:03:36.084Z,101887.84
2023-04-29T07:06:03.555Z,101889.59
2023-04-29T07:08:31.343Z,101893.09
2023-04-29T07:10:59.218Z,101906.16
2023-04-29T07:13:27.209Z,101909.59
2023-04-29T07:15:54.619Z,101916.56
2023-04-29T07:18:22.077Z,101920.09
2023-04-29T07:20:51.128Z,101924.44
2023-04-29T07:23:18.526Z,101915.69
2023-04-29T07:25:46.006Z,101924.41
2023-04-29T07:28:13.422Z,101920.03
2023-04-29T07:30:40.888Z,101926.06
2023-04-29T07:33:08.371Z,101930.41
2023-04-29T07:35:35.879Z,101930.28
2023-04-29T07:38:03.339Z,101927.66
2023-04-29T07:40:30.725Z,101932.59
2023-04-29T07:42:58.072Z,101932.81
2023-04-29T07:45:25.480Z,101930.84
2023-04-29T07:47:52.841Z,101935.13
2023-04-29T07:50:20.247Z,101939.91
2023-04-29T07:52:47.619Z,101941.53
2023-04-29T07:55:15.025Z,101953.66
2023-04-29T07:57:42.473Z,101947.53
2023-04-29T08:00:10.675Z,101953.75
2023-04-29T08:02:38.302Z,101956.53
2023-04-29T08:05:06.056Z,101959.97
2023-04-29T08:07:33.613Z,101962.47
2023-04-29T08:10:01.047Z,101960.59
2023-04-29T08:12:28.502Z,101960.66
2023-04-29T08:14:55.923Z,101965.00
2023-04-29T08:17:23.321Z,101954.69
2023-04-29T08:19:50.813Z,101979.13
2023-04-29T08:22:18.280Z,101972.94
2023-04-29T08:24:45.722Z,101968.59
2023-04-29T08:27:13.073Z,101965.22
2023-04-29T08:29:40.496Z,101965.53
2023-04-29T08:32:07.982Z,101967.63
2023-04-29T08:34:36.434Z,101961.47
2023-04-29T08:37:04.156Z,101967.63
2023-04-29T08:39:31.569Z,101968.31
2023-04-29T08:41:59.905Z,101970.81
2023-04-29T08:44:27.933Z,101975.09
2023-04-29T08:46:55.857Z,101973.16
2023-04-29T08:49:23.250Z,101975.16
2023-04-29T08:51:51.606Z,101981.22
2023-04-29T08:54:19.072Z,101985.28
2023-04-29T08:56:47.317Z,101992.47
2023-04-29T08:59:18.209Z,101985.59
2023-04-29T09:01:50.518Z,101987.69
2023-04-29T09:04:36.367Z,101992.38
2023-04-29T09:07:04.062Z,101994.41
2023-04-29T09:09:32.916Z,101991.28
2023-04-29T09:12:00.538Z,101998.19
2023-04-29T09:14:28.590Z,101992.88
2023-04-29T09:16:56.114Z,101999.94
2023-04-29T09:19:41.791Z,102008.59
2023-04-29T09:22:09.322Z,102007.59
2023-04-29T09:24:37.998Z,102007.00
2023-04-29T09:27:05.521Z,102002.59
2023-04-29T09:29:34.543Z,102001.94
2023-04-29T09:32:01.964Z,102009.47
2023-04-29T09:34:33.723Z,102002.09
2023-04-29T09:37:01.130Z,102011.09
2023-04-29T09:39:28.533Z,102013.06
2023-04-29T09:41:55.935Z,102010.75
2023-04-29T09:44:27.414Z,102019.44
2023-04-29T09:46:58.310Z,102021.84
2023-04-29T09:49:27.021Z,102028.59
2023-04-29T09:51:55.313Z,102020.78
2023-04-29T09:54:23.763Z,102012.50
2023-04-29T09:56:51.887Z,102015.69
2023-04-29T09:59:22.720Z,102012.50
2023-04-29T10:01:50.981Z,102012.31
2023-04-29T10:04:19.578Z,102013.03
2023-04-29T10:06:49.260Z,102009.06
2023-04-29T10:09:17.445Z,102008.00
2023-04-29T10:11:49.292Z,102006.81
2023-04-29T10:14:17.845Z,102014.75
2023-04-29T10:16:49.429Z,102016.66
2023-04-29T10:19:20.601Z,102014.84
2023-04-29T10:21:50.061Z,102014.47
2023-04-29T10:24:18.691Z,102018.72
2023-04-29T10:26:48.227Z,102028.22
2023-04-29T10:29:16.619Z,102023.59
2023-04-29T10:31:44.712Z,102017.72
2023-04-29T10:34:12.960Z,102020.41
2023-04-29T10:36:40.912Z,102031.22
2023-04-29T10:39:11.914Z,102018.63
2023-04-29T10:41:46.917Z,102019.84
2023-04-29T10:44:14.836Z,102022.38
2023-04-29T10:46:42.268Z,102024.75
2023-04-29T10:49:11.809Z,102016.50
2023-04-29T10:51:42.913Z,102019.00
2023-04-29T10:54:10.779Z,102020.69
2023-04-29T10:56:38.722Z,102026.38
2023-04-29T10:59:06.416Z,102020.72
2023-04-29T11:01:47.031Z,102010.06
2023-04-29T11:04:15.654Z,102018.84
2023-04-29T11:06:47.478Z,102022.88
2023-04-29T11:09:16.104Z,102018.22
2023-04-29T11:11:48.950Z,102017.88
2023-04-29T11:14:17.149Z,102024.88
2023-04-29T11:16:52.671Z,102023.75
2023-04-29T11:19:20.391Z,102027.13
2023-04-29T11:21:48.200Z,102022.19
2023-04-29T11:24:17.498Z,102021.91
2023-04-29T11:26:46.324Z,102030.75
2023-04-29T11:29:13.822Z,102014.59
2023-04-29T11:31:41.590Z,102020.91
2023-04-29T11:34:09.074Z,102027.91
2023-04-29T11:36:37.141Z,102023.69
2023-04-29T11:39:05.184Z,102024.00
2023-04-29T11:41:32.737Z,102027.66
2023-04-29T11:44:01.242Z,102018.91
2023-04-29T11:46:31.890Z,102019.00
2023-04-29T11:49:00.486Z,102015.22
2023-04-29T11:51:28.562Z,102018.66
2023-04-29T11:53:56.648Z,102027.00
2023-04-29T11:56:25.493Z,102028.09
2023-04-29T11:58:57.052Z,102027.56
2023-04-29T12:01:24.550Z,102024.66
2023-04-29T12:03:52.214Z,102020.78
2023-04-29T12:06:19.814Z,102028.13
2023-04-29T12:08:48.526Z,102026.00
2023-04-29T12:11:16.292Z,102020.03
2023-04-29T12:13:43.754Z,102019.47
2023-04-29T12:16:11.425Z,102011.69
2023-04-29T12:18:39.197Z,102012.75
2023-04-29T12:21:06.714Z,102018.72
2023-04-29T12:23:36.655Z,102028.94
2023-04-29T12:26:04.898Z,102026.59
2023-04-29T12:28:32.242Z,102025.91
2023-04-29T12:31:00.294Z,102022.22
2023-04-29T12:33:28.711Z,102031.59
2023-04-29T12:35:59.989Z,102015.13
2023-04-29T12:38:33.733Z,102024.44
2023-04-29T12:41:02.089Z,102021.56
2023-04-29T12:43:29.745Z,102032.66
2023-04-29T12:46:04.008Z,102021.09
2023-04-29T12:48:33.350Z,102039.88
2023-04-29T12:51:01.771Z,102022.84
2023-04-29T12:53:32.968Z,102035.25
2023-04-29T12:56:00.481Z,102027.44
2023-04-29T12:58:31.253Z,102033.78
2023-04-29T13:00:59.314Z,102034.91
2023-04-29T13:03:27.037Z,102033.91
2023-04-29T13:05:55.040Z,102040.06
2023-04-29T13:08:23.209Z,102039.53
2023-04-29T13:10:50.920Z,102041.34
2023-04-29T13:13:18.664Z,102039.66
2023-04-29T13:15:46.253Z,102036.66
2023-04-29T13:18:13.658Z,102040.81
2023-04-29T13:20:43.510Z,102034.06
2023-04-29T13:23:12.045Z,102038.97
2023-04-29T13:25:39.578Z,102049.28
2023-04-29T13:28:07.479Z,102047.25
2023-04-29T13:30:34.926Z,102049.69
2023-04-29T13:33:09.813Z,102055.38
2023-04-29T13:35:41.648Z,102051.91
2023-04-29T13:38:09.517Z,102046.69
2023-04-29T13:40:40.806Z,102047.03
2023-04-29T13:43:15.816Z,102050.50
2023-04-29T13:45:52.316Z,102046.00
2023-04-29T13:48:34.886Z,102042.94
2023-04-29T13:54:29.261Z,102053.81
2023-04-29T14:03:58.407Z,102066.94
2023-04-29T14:06:28.342Z,102066.63
2023-04-29T14:08:55.835Z,102060.88
2023-04-29T14:11:23.348Z,102064.25
2023-04-29T14:13:50.872Z,102078.03
2023-04-29T14:16:18.390Z,102078.22
2023-04-29T14:18:45.821Z,102074.00
2023-04-29T14:21:13.723Z,102078.31
2023-04-29T14:23:41.189Z,102079.81
2023-04-29T14:26:22.979Z,102081.41
2023-04-29T14:28:57.836Z,102089.09
2023-04-29T14:31:28.085Z,102083.00
2023-04-29T14:33:56.407Z,102091.09
2023-04-29T14:36:24.028Z,102087.09
2023-04-29T14:38:51.508Z,102092.97
2023-04-29T14:41:19.045Z,102091.88
2023-04-29T14:43:46.636Z,102088.53
2023-04-29T14:46:14.236Z,102087.38
2023-04-29T14:48:41.685Z,102094.94
2023-04-29T14:51:09.631Z,102093.91
2023-04-29T14:53:37.102Z,102084.59
2023-04-29T14:56:04.842Z,102089.50
2023-04-29T14:58:32.294Z,102084.47
2023-04-29T15:00:59.712Z,102085.22
2023-04-29T15:03:27.242Z,102094.81
2023-04-29T15:05:54.993Z,102102.34
2023-04-29T15:08:22.958Z,102095.34
2023-04-29T15:10:50.754Z,102089.34
2023-04-29T15:13:18.296Z,102107.63
2023-04-29T15:15:45.826Z,102106.88
2023-04-29T15:18:13.336Z,102095.56
2023-04-29T15:20:40.724Z,102105.38
2023-04-29T15:23:08.756Z,102107.66
2023-04-29T15:25:36.595Z,102108.28
2023-04-29T15:28:04.830Z,102112.44
2023-04-29T15:30:32.746Z,102118.38
2023-04-29T15:33:00.470Z,102107.72
2023-04-29T15:35:28.124Z,102112.56
2023-04-29T15:37:56.376Z,102108.63
2023-04-29T15:40:23.889Z,102115.81
2023-04-29T15:42:51.334Z,102118.03
2023-04-29T15:45:20.480Z,102114.09
2023-04-29T15:47:47.958Z,102118.41
2023-04-29T15:50:15.480Z,102113.38
2023-04-29T15:52:42.909Z,102115.88
2023-04-29T15:55:10.404Z,102115.53
2023-04-29T15:57:41.136Z,102122.09
2023-04-29T16:00:09.534Z,102129.34
2023-04-29T16:02:37.088Z,102129.81
2023-04-29T16:05:04.837Z,102132.63
2023-04-29T16:07:33.626Z,102132.88
2023-04-29T16:10:02.261Z,102127.03
2023-04-29T16:12:29.714Z,102129.47
2023-04-29T16:14:57.088Z,102134.00
2023-04-29T16:17:24.474Z,102139.84
2023-04-29T16:19:52.235Z,102123.03
2023-04-29T16:22:19.831Z,102131.81
2023-04-29T16:24:49.311Z,102131.34
2023-04-29T16:27:17.708Z,102139.16
2023-04-29T16:29:45.127Z,102147.22
2023-04-29T16:32:12.599Z,102149.66
2023-04-29T16:34:39.973Z,102148.13
2023-04-29T16:37:12.334Z,102138.06
2023-04-29T16:39:40.315Z,102141.78
2023-04-29T16:42:07.992Z,102137.91
2023-04-29T16:44:35.350Z,102138.63
2023-04-29T16:47:03.069Z,102136.13
2023-04-29T16:49:31.396Z,102139.78
2023-04-29T16:51:58.863Z,102134.31
2023-04-29T16:54:26.417Z,102148.31
2023-04-29T16:56:53.774Z,102147.50
2023-04-29T16:59:21.517Z,102138.53
2023-04-29T17:01:49.066Z,102138.81
2023-04-29T17:04:16.583Z,102146.53
2023-04-29T17:06:44.109Z,102136.16
2023-04-29T17:09:11.579Z,102151.66
2023-04-29T17:11:39.053Z,102142.56
2023-04-29T17:14:06.640Z,102141.63
2023-04-29T17:16:34.179Z,102148.72
2023-04-29T17:19:01.606Z,102143.53
2023-04-29T17:21:30.560Z,102147.94
2023-04-29T17:23:58.878Z,102146.88
2023-04-29T17:26:26.464Z,102141.94
2023-04-29T17:28:54.090Z,102145.41
2023-04-29T17:31:25.321Z,102146.28
2023-04-29T17:34:05.087Z,102146.38
2023-04-29T17:36:33.615Z,102148.09
2023-04-29T17:39:01.041Z,102145.50
2023-04-29T17:41:28.472Z,102155.31
2023-04-29T17:43:55.921Z,102146.78
2023-04-29T17:46:23.419Z,102151.84
2023-04-29T17:48:50.869Z,102156.38
2023-04-29T17:51:18.294Z,102157.38
2023-04-29T17:53:45.710Z,102161.91
2023-04-29T17:56:13.134Z,102167.84
2023-04-29T17:58:40.724Z,102171.25
2023-04-29T18:01:08.273Z,102174.94
2023-04-29T18:03:35.827Z,102174.88
2023-04-29T18:06:03.305Z,102174.38
2023-04-29T18:08:30.778Z,102175.38
2023-04-29T18:10:58.215Z,102183.13
2023-04-29T18:13:27.263Z,102181.50
2023-04-29T18:15:55.018Z,102180.56
2023-04-29T18:18:22.451Z,102180.63
2023-04-29T18:20:49.884Z,102178.91
2023-04-29T18:23:17.315Z,102184.16
2023-04-29T18:25:44.755Z,102194.66
2023-04-29T18:28:23.591Z,102196.41
2023-04-29T18:30:52.865Z,102191.19
2023-04-29T18:33:20.412Z,102196.41
2023-04-29T18:35:47.900Z,102191.16
2023-04-29T18:38:17.324Z,102171.13
2023-04-29T18:40:45.165Z,102194.69
2023-04-29T18:43:17.152Z,102198.16
2023-04-29T18:45:47.761Z,102204.28
2023-04-29T18:48:15.339Z,102200.81
2023-04-29T18:50:42.861Z,102201.69
2023-04-29T18:53:10.503Z,102213.00
2023-04-29T18:55:37.882Z,102210.38
2023-04-29T18:58:05.574Z,102222.63
2023-04-29T19:00:33.094Z,102214.72
2023-04-29T19:03:00.596Z,102228.66
2023-04-29T19:05:28.098Z,102229.50
2023-04-29T19:07:55.545Z,102224.31
2023-04-29T19:10:22.926Z,102227.72
2023-04-29T19:12:50.600Z,102235.53
2023-04-29T19:15:18.102Z,102226.00
2023-04-29T19:17:45.572Z,102235.53
2023-04-29T19:20:13.178Z,102246.00
2023-04-29T19:22:40.657Z,102244.31
2023-04-29T19:25:08.266Z,102246.88
2023-04-29T19:27:35.706Z,102250.44
2023-04-29T19:30:03.148Z,102252.09
2023-04-29T19:32:30.702Z,102252.97
2023-04-29T19:34:58.195Z,102255.56
2023-04-29T19:37:26.129Z,102259.84
2023-04-29T19:39:53.884Z,102260.81
2023-04-29T19:42:21.586Z,102262.41
2023-04-29T19:44:48.944Z,102263.25
2023-04-29T19:47:16.400Z,102253.59
2023-04-29T19:49:43.825Z,102259.75
2023-04-29T19:52:11.171Z,102265.81
2023-04-29T19:54:40.698Z,102276.09
2023-04-29T19:57:08.097Z,102265.69
2023-04-29T19:59:35.510Z,102268.31
2023-04-29T20:02:02.945Z,102265.63
2023-04-29T20:04:30.409Z,102268.03
2023-04-29T20:06:57.890Z,102274.25
2023-04-29T20:09:26.464Z,102270.72
2023-04-29T20:11:53.966Z,102275.81
2023-04-29T20:14:21.545Z,102272.41
2023-04-29T20:16:49.126Z,102276.97
2023-04-29T20:19:16.658Z,102286.47
2023-04-29T20:21:44.023Z,102291.75
2023-04-29T20:24:11.399Z,102282.97
2023-04-29T20:26:38.786Z,102288.13
2023-04-29T20:29:06.263Z,102285.31
2023-04-29T20:31:33.737Z,102288.06
2023-04-29T20:34:01.347Z,102290.66
2023-04-29T20:36:29.383Z,102289.75
2023-04-29T20:38:57.252Z,102281.03
2023-04-29T20:41:27.523Z,102286.13
2023-04-29T20:43:55.106Z,102296.53
2023-04-29T20:46:25.310Z,102296.59
2023-04-29T20:48:53.578Z,102291.31
2023-04-29T20:51:21.011Z,102289.63
2023-04-29T20:53:48.730Z,102292.06
2023-04-29T20:56:16.218Z,102304.91
2023-04-29T20:58:43.578Z,102304.91
2023-04-29T21:01:11.145Z,102316.28
2023-04-29T21:03:38.574Z,102309.31
2023-04-29T21:06:05.997Z,102311.06
2023-04-29T21:08:33.466Z,102310.97
2023-04-29T21:11:01.550Z,102320.50
2023-04-29T21:13:28.930Z,102311.78
2023-04-29T21:15:56.310Z,102307.34
2023-04-29T21:18:23.925Z,102310.09
2023-04-29T21:20:51.295Z,102313.38
2023-04-29T21:23:18.658Z,102320.19
2023-04-29T21:25:46.160Z,102323.59
2023-04-29T21:28:14.362Z,102322.78
2023-04-29T21:30:43.656Z,102321.94
2023-04-29T21:33:11.111Z,102321.06
2023-04-29T21:35:39.814Z,102316.59
2023-04-29T21:38:07.357Z,102321.84
2023-04-29T21:40:34.870Z,102325.53
2023-04-29T21:43:02.615Z,102318.50
2023-04-29T21:45:30.323Z,102326.31
2023-04-29T21:48:03.647Z,102314.94
2023-04-29T21:50:31.388Z,102318.97
2023-04-29T21:52:58.831Z,102316.31
2023-04-29T21:55:26.211Z,102323.28
2023-04-29T21:57:53.634Z,102325.88
2023-04-29T22:00:32.891Z,102326.69
2023-04-29T22:03:01.247Z,102332.88
2023-04-29T22:05:28.703Z,102337.03
2023-04-29T22:07:58.102Z,102331.09
2023-04-29T22:10:25.913Z,102332.75
2023-04-29T22:12:53.434Z,102331.81
2023-04-29T22:15:28.558Z,102337.97
2023-04-29T22:17:57.361Z,102338.69
2023-04-29T22:20:25.332Z,102340.38
2023-04-29T22:22:53.070Z,102337.56
2023-04-29T22:25:21.839Z,102341.72
2023-04-29T22:27:49.855Z,102339.13
2023-04-29T22:30:18.019Z,102339.88
2023-04-29T22:32:45.717Z,102345.91
2023-04-29T22:35:13.209Z,102344.88
2023-04-29T22:37:40.933Z,102341.66
2023-04-29T22:40:08.700Z,102345.31
2023-04-29T22:42:36.128Z,102352.94
2023-04-29T22:45:03.554Z,102351.13
2023-04-29T22:47:31.202Z,102345.16
2023-04-29T22:49:58.656Z,102354.50
2023-04-29T22:52:27.445Z,102340.84
2023-04-29T22:54:54.916Z,102344.19
2023-04-29T22:57:22.351Z,102341.59
2023-04-29T22:59:49.934Z,102341.31
2023-04-29T23:02:17.354Z,102351.97
2023-04-29T23:04:44.782Z,102359.84
2023-04-29T23:07:12.298Z,102348.53
2023-04-29T23:09:39.767Z,102347.63
2023-04-29T23:12:07.227Z,102350.28
2023-04-29T23:14:34.626Z,102349.50
2023-04-29T23:17:02.026Z,102339.81
2023-04-29T23:19:29.400Z,102355.50
2023-04-29T23:21:56.820Z,102355.38
2023-04-29T23:24:24.387Z,102362.38
2023-04-29T23:26:51.856Z,102357.88
2023-04-29T23:29:19.412Z,102360.44
2023-04-29T23:31:46.891Z,102359.78
2023-04-29T23:34:16.469Z,102368.44
2023-04-29T23:36:43.834Z,102363.09
2023-04-29T23:39:11.249Z,102367.28
2023-04-29T23:41:38.678Z,102370.78
2023-04-29T23:44:06.108Z,102372.53
2023-04-29T23:46:33.581Z,102376.81
2023-04-29T23:49:01.668Z,102373.94
2023-04-29T23:51:29.030Z,102383.41
2023-04-29T23:53:56.451Z,102385.69
2023-04-29T23:56:25.747Z,102378.78
2023-04-29T23:58:53.372Z,102374.59
